Terminal Aerodrome Forecast
Issued by NWS Cleveland, OH

Home | Current Version | Previous Version | Graphics & Text | Print | Product List | Glossary Off
Versions: 1 2 3 4 5 6 7 8 9 10 11 12 13 14 15 16 17 18 19

168
FTUS41 KCLE 032322
TAFTOL
TAF
KTOL 032322Z 0400/0424 25012G20KT P6SM OVC025
     FM041700 27012KT P6SM BKN035
     FM042300 27008KT P6SM SKC=

USA.gov is the U.S. government's official web portal to all federal, state and local government web resources and services.